Terminal Aerodrome Forecast
Issued by NWS

Home | Current Version | Previous Version | Text Only | Print | Product List | Glossary On
Versions: 1 2 3 4 5 6 7 8 9 10 11 12 13 14 15 16 17 18 19 20 21 22
000
FTUS41 KOKX 030222 AAA
TAFHPN
TAF AMD
KHPN 030222Z 0302/0324 VRB03KT 6SM BR SCT015 BKN050
     FM030500 VRB04KT 3SM RA BR BKN005 BKN015
     FM030900 VRB04KT 1SM RA BR OVC003
     FM031300 03005KT 2SM -SHRA BR OVC003
     FM031600 03006KT 3SM BR OVC005
     FM032100 09005KT 6SM BR SCT007 BKN015
      AMD NOT SKED=

USA.gov is the U.S. government's official web portal to all federal, state and local government web resources and services.